Aviation Digital Data Service (ADDS)

Output produced by TAFs form (1907 UTC 11 February 2016)
found at http://aviationweather.gov/adds/tafs/
 
KAMA 111720Z 1118/1218 22005KT P6SM SKC 
     FM120730 34010KT P6SM FEW250